sensor_id;sensor_type;location;lat;lon;timestamp;P1;durP1;ratioP1;P2;durP2;ratioP2
27375;SDS011;14844;51.302;6.354;2023-10-13T00:01:55;23.85;;;13.63;;
27375;SDS011;14844;51.302;6.354;2023-10-13T00:04:24;21.40;;;12.63;;
27375;SDS011;14844;51.302;6.354;2023-10-13T00:06:53;22.88;;;12.77;;
27375;SDS011;14844;51.302;6.354;2023-10-13T00:09:21;19.23;;;12.95;;
27375;SDS011;14844;51.302;6.354;2023-10-13T00:11:50;22.90;;;13.25;;
27375;SDS011;14844;51.302;6.354;2023-10-13T00:14:18;26.20;;;13.35;;
27375;SDS011;14844;51.302;6.354;2023-10-13T00:16:46;20.35;;;13.05;;
27375;SDS011;14844;51.302;6.354;2023-10-13T00:19:27;23.65;;;12.98;;
27375;SDS011;14844;51.302;6.354;2023-10-13T00:21:53;25.55;;;13.55;;
27375;SDS011;14844;51.302;6.354;2023-10-13T00:24:21;21.75;;;12.52;;
27375;SDS011;14844;51.302;6.354;2023-10-13T00:26:48;19.88;;;12.68;;
27375;SDS011;14844;51.302;6.354;2023-10-13T00:29:14;25.88;;;13.38;;
27375;SDS011;14844;51.302;6.354;2023-10-13T00:31:42;18.13;;;12.40;;
27375;SDS011;14844;51.302;6.354;2023-10-13T00:34:09;20.65;;;13.13;;
27375;SDS011;14844;51.302;6.354;2023-10-13T00:36:45;22.35;;;12.02;;
27375;SDS011;14844;51.302;6.354;2023-10-13T00:39:34;26.65;;;12.50;;
27375;SDS011;14844;51.302;6.354;2023-10-13T00:42:02;18.80;;;12.27;;
27375;SDS011;14844;51.302;6.354;2023-10-13T00:44:32;22.42;;;12.80;;
27375;SDS011;14844;51.302;6.354;2023-10-13T00:47:08;28.67;;;13.10;;
27375;SDS011;14844;51.302;6.354;2023-10-13T00:49:35;17.42;;;11.30;;
27375;SDS011;14844;51.302;6.354;2023-10-13T00:52:07;20.42;;;11.95;;
27375;SDS011;14844;51.302;6.354;2023-10-13T00:54:35;24.02;;;11.82;;
27375;SDS011;14844;51.302;6.354;2023-10-13T00:57:02;20.95;;;11.77;;
27375;SDS011;14844;51.302;6.354;2023-10-13T00:59:51;21.00;;;11.70;;
27375;SDS011;14844;51.302;6.354;2023-10-13T01:02:18;17.65;;;11.73;;
27375;SDS011;14844;51.302;6.354;2023-10-13T01:05:03;18.60;;;11.38;;
27375;SDS011;14844;51.302;6.354;2023-10-13T01:07:30;21.80;;;12.20;;
27375;SDS011;14844;51.302;6.354;2023-10-13T01:09:55;17.42;;;11.18;;
27375;SDS011;14844;51.302;6.354;2023-10-13T01:12:21;18.17;;;12.20;;
27375;SDS011;14844;51.302;6.354;2023-10-13T01:14:49;16.40;;;11.77;;
27375;SDS011;14844;51.302;6.354;2023-10-13T01:17:15;21.67;;;12.32;;
27375;SDS011;14844;51.302;6.354;2023-10-13T01:19:41;19.65;;;12.23;;
27375;SDS011;14844;51.302;6.354;2023-10-13T01:22:10;21.25;;;12.65;;
27375;SDS011;14844;51.302;6.354;2023-10-13T01:24:39;24.15;;;12.23;;
27375;SDS011;14844;51.302;6.354;2023-10-13T01:27:04;23.50;;;12.30;;
27375;SDS011;14844;51.302;6.354;2023-10-13T01:29:48;20.73;;;12.98;;
27375;SDS011;14844;51.302;6.354;2023-10-13T01:32:16;20.40;;;12.02;;
27375;SDS011;14844;51.302;6.354;2023-10-13T01:34:45;20.60;;;12.65;;
27375;SDS011;14844;51.302;6.354;2023-10-13T01:37:12;24.45;;;13.50;;
27375;SDS011;14844;51.302;6.354;2023-10-13T01:39:37;22.27;;;12.27;;
27375;SDS011;14844;51.302;6.354;2023-10-13T01:42:03;19.55;;;12.32;;
27375;SDS011;14844;51.302;6.354;2023-10-13T01:44:31;20.98;;;12.32;;
27375;SDS011;14844;51.302;6.354;2023-10-13T01:46:57;23.00;;;13.25;;
27375;SDS011;14844;51.302;6.354;2023-10-13T01:49:24;20.35;;;12.60;;
27375;SDS011;14844;51.302;6.354;2023-10-13T01:51:52;19.67;;;12.52;;
27375;SDS011;14844;51.302;6.354;2023-10-13T01:54:18;19.65;;;12.18;;
27375;SDS011;14844;51.302;6.354;2023-10-13T01:56:46;24.30;;;12.85;;
27375;SDS011;14844;51.302;6.354;2023-10-13T01:59:13;21.02;;;11.75;;
27375;SDS011;14844;51.302;6.354;2023-10-13T02:01:40;26.52;;;13.05;;
27375;SDS011;14844;51.302;6.354;2023-10-13T02:04:07;17.17;;;11.90;;
27375;SDS011;14844;51.302;6.354;2023-10-13T02:06:33;22.38;;;12.57;;
27375;SDS011;14844;51.302;6.354;2023-10-13T02:09:08;21.60;;;12.15;;
27375;SDS011;14844;51.302;6.354;2023-10-13T02:11:50;20.75;;;12.50;;
27375;SDS011;14844;51.302;6.354;2023-10-13T02:14:19;18.38;;;12.40;;
27375;SDS011;14844;51.302;6.354;2023-10-13T02:16:50;19.52;;;12.60;;
27375;SDS011;14844;51.302;6.354;2023-10-13T02:19:20;22.27;;;11.98;;
27375;SDS011;14844;51.302;6.354;2023-10-13T02:21:46;19.40;;;11.98;;
27375;SDS011;14844;51.302;6.354;2023-10-13T02:24:23;18.05;;;11.70;;
27375;SDS011;14844;51.302;6.354;2023-10-13T02:26:54;21.63;;;12.85;;
27375;SDS011;14844;51.302;6.354;2023-10-13T02:29:21;23.42;;;12.80;;
27375;SDS011;14844;51.302;6.354;2023-10-13T02:31:47;22.83;;;12.77;;
27375;SDS011;14844;51.302;6.354;2023-10-13T02:34:19;20.60;;;12.27;;
27375;SDS011;14844;51.302;6.354;2023-10-13T02:36:44;22.13;;;12.75;;
27375;SDS011;14844;51.302;6.354;2023-10-13T02:39:16;19.73;;;12.02;;
27375;SDS011;14844;51.302;6.354;2023-10-13T02:41:49;18.70;;;12.38;;
27375;SDS011;14844;51.302;6.354;2023-10-13T02:44:15;19.30;;;11.85;;
27375;SDS011;14844;51.302;6.354;2023-10-13T02:46:56;17.10;;;12.75;;
27375;SDS011;14844;51.302;6.354;2023-10-13T02:49:23;21.85;;;12.90;;
27375;SDS011;14844;51.302;6.354;2023-10-13T02:51:51;21.58;;;12.10;;
27375;SDS011;14844;51.302;6.354;2023-10-13T02:54:18;20.98;;;12.82;;
27375;SDS011;14844;51.302;6.354;2023-10-13T02:56:44;17.58;;;12.65;;
27375;SDS011;14844;51.302;6.354;2023-10-13T02:59:25;22.92;;;12.90;;
27375;SDS011;14844;51.302;6.354;2023-10-13T03:02:05;21.45;;;12.25;;
27375;SDS011;14844;51.302;6.354;2023-10-13T03:04:54;21.75;;;12.45;;
27375;SDS011;14844;51.302;6.354;2023-10-13T03:07:27;22.23;;;13.38;;
27375;SDS011;14844;51.302;6.354;2023-10-13T03:09:54;21.10;;;13.30;;
27375;SDS011;14844;51.302;6.354;2023-10-13T03:12:24;19.35;;;12.57;;
27375;SDS011;14844;51.302;6.354;2023-10-13T03:14:50;24.05;;;13.30;;
27375;SDS011;14844;51.302;6.354;2023-10-13T03:17:38;21.55;;;13.27;;
27375;SDS011;14844;51.302;6.354;2023-10-13T03:20:09;22.90;;;13.52;;
27375;SDS011;14844;51.302;6.354;2023-10-13T03:22:39;21.70;;;13.33;;
27375;SDS011;14844;51.302;6.354;2023-10-13T03:25:05;23.65;;;12.68;;
27375;SDS011;14844;51.302;6.354;2023-10-13T03:27:33;19.75;;;12.25;;
27375;SDS011;14844;51.302;6.354;2023-10-13T03:30:17;22.25;;;12.68;;
27375;SDS011;14844;51.302;6.354;2023-10-13T03:32:43;21.27;;;13.10;;
27375;SDS011;14844;51.302;6.354;2023-10-13T03:35:11;20.75;;;13.35;;
27375;SDS011;14844;51.302;6.354;2023-10-13T03:37:38;20.77;;;13.13;;
27375;SDS011;14844;51.302;6.354;2023-10-13T03:42:32;24.63;;;14.40;;
27375;SDS011;14844;51.302;6.354;2023-10-13T03:44:57;24.30;;;13.88;;
27375;SDS011;14844;51.302;6.354;2023-10-13T03:47:23;23.88;;;13.85;;
27375;SDS011;14844;51.302;6.354;2023-10-13T03:49:52;24.08;;;13.35;;
27375;SDS011;14844;51.302;6.354;2023-10-13T03:52:38;29.40;;;14.77;;
27375;SDS011;14844;51.302;6.354;2023-10-13T03:55:04;25.80;;;15.00;;
27375;SDS011;14844;51.302;6.354;2023-10-13T03:57:31;25.02;;;14.68;;
27375;SDS011;14844;51.302;6.354;2023-10-13T04:00:02;23.00;;;14.63;;
27375;SDS011;14844;51.302;6.354;2023-10-13T04:02:34;24.77;;;14.40;;
27375;SDS011;14844;51.302;6.354;2023-10-13T04:05:03;24.77;;;14.20;;
27375;SDS011;14844;51.302;6.354;2023-10-13T04:08:06;25.98;;;14.70;;
27375;SDS011;14844;51.302;6.354;2023-10-13T04:10:51;24.45;;;14.30;;
27375;SDS011;14844;51.302;6.354;2023-10-13T04:13:17;27.40;;;14.02;;
27375;SDS011;14844;51.302;6.354;2023-10-13T04:16:12;20.42;;;13.02;;
27375;SDS011;14844;51.302;6.354;2023-10-13T04:18:59;22.50;;;13.82;;
27375;SDS011;14844;51.302;6.354;2023-10-13T04:21:26;22.23;;;12.95;;
27375;SDS011;14844;51.302;6.354;2023-10-13T04:24:07;19.23;;;11.77;;
27375;SDS011;14844;51.302;6.354;2023-10-13T04:26:47;20.52;;;12.80;;
27375;SDS011;14844;51.302;6.354;2023-10-13T04:29:33;17.65;;;11.85;;
27375;SDS011;14844;51.302;6.354;2023-10-13T04:32:14;20.27;;;11.63;;
27375;SDS011;14844;51.302;6.354;2023-10-13T04:34:41;20.13;;;11.55;;
27375;SDS011;14844;51.302;6.354;2023-10-13T04:37:21;19.10;;;11.15;;
27375;SDS011;14844;51.302;6.354;2023-10-13T04:39:58;23.40;;;11.77;;
27375;SDS011;14844;51.302;6.354;2023-10-13T04:42:36;18.30;;;11.20;;
27375;SDS011;14844;51.302;6.354;2023-10-13T04:45:15;26.63;;;12.00;;
27375;SDS011;14844;51.302;6.354;2023-10-13T04:47:58;25.13;;;12.15;;
27375;SDS011;14844;51.302;6.354;2023-10-13T04:50:47;20.63;;;11.00;;
27375;SDS011;14844;51.302;6.354;2023-10-13T04:53:15;19.60;;;11.88;;
27375;SDS011;14844;51.302;6.354;2023-10-13T04:56:20;19.00;;;11.35;;
27375;SDS011;14844;51.302;6.354;2023-10-13T04:59:04;20.05;;;11.10;;
27375;SDS011;14844;51.302;6.354;2023-10-13T05:01:48;21.60;;;11.40;;
27375;SDS011;14844;51.302;6.354;2023-10-13T05:04:34;16.40;;;10.60;;
27375;SDS011;14844;51.302;6.354;2023-10-13T05:07:22;18.25;;;11.02;;
27375;SDS011;14844;51.302;6.354;2023-10-13T05:10:06;21.92;;;11.68;;
27375;SDS011;14844;51.302;6.354;2023-10-13T05:12:50;36.53;;;12.98;;
27375;SDS011;14844;51.302;6.354;2023-10-13T05:15:41;27.08;;;12.27;;
27375;SDS011;14844;51.302;6.354;2023-10-13T05:18:27;31.05;;;12.90;;
27375;SDS011;14844;51.302;6.354;2023-10-13T05:21:10;20.92;;;12.40;;
27375;SDS011;14844;51.302;6.354;2023-10-13T05:23:54;21.52;;;12.15;;
27375;SDS011;14844;51.302;6.354;2023-10-13T05:26:39;27.52;;;13.05;;
27375;SDS011;14844;51.302;6.354;2023-10-13T05:29:23;28.83;;;13.90;;
27375;SDS011;14844;51.302;6.354;2023-10-13T05:32:07;22.92;;;11.85;;
27375;SDS011;14844;51.302;6.354;2023-10-13T05:34:51;22.70;;;11.23;;
27375;SDS011;14844;51.302;6.354;2023-10-13T05:37:35;23.17;;;11.25;;
27375;SDS011;14844;51.302;6.354;2023-10-13T05:40:19;28.67;;;10.75;;
27375;SDS011;14844;51.302;6.354;2023-10-13T05:43:03;24.85;;;10.40;;
27375;SDS011;14844;51.302;6.354;2023-10-13T05:45:47;20.58;;;10.27;;
27375;SDS011;14844;51.302;6.354;2023-10-13T05:48:47;25.65;;;10.82;;
27375;SDS011;14844;51.302;6.354;2023-10-13T05:51:22;21.83;;;10.02;;
27375;SDS011;14844;51.302;6.354;2023-10-13T05:54:03;21.73;;;9.68;;
27375;SDS011;14844;51.302;6.354;2023-10-13T05:56:45;29.77;;;10.27;;
27375;SDS011;14844;51.302;6.354;2023-10-13T05:59:30;25.70;;;10.40;;
27375;SDS011;14844;51.302;6.354;2023-10-13T06:02:15;28.10;;;9.82;;
27375;SDS011;14844;51.302;6.354;2023-10-13T06:05:05;22.90;;;9.80;;
27375;SDS011;14844;51.302;6.354;2023-10-13T06:07:51;20.08;;;9.45;;
27375;SDS011;14844;51.302;6.354;2023-10-13T06:10:35;23.75;;;9.05;;
27375;SDS011;14844;51.302;6.354;2023-10-13T06:13:20;21.10;;;8.52;;
27375;SDS011;14844;51.302;6.354;2023-10-13T06:16:05;22.77;;;8.30;;
27375;SDS011;14844;51.302;6.354;2023-10-13T06:18:52;23.67;;;7.68;;
27375;SDS011;14844;51.302;6.354;2023-10-13T06:21:37;23.80;;;8.25;;
27375;SDS011;14844;51.302;6.354;2023-10-13T06:24:21;20.20;;;7.90;;
27375;SDS011;14844;51.302;6.354;2023-10-13T06:27:08;24.45;;;8.02;;
27375;SDS011;14844;51.302;6.354;2023-10-13T06:29:53;25.35;;;8.48;;
27375;SDS011;14844;51.302;6.354;2023-10-13T06:32:19;28.95;;;8.48;;
27375;SDS011;14844;51.302;6.354;2023-10-13T06:34:45;22.23;;;8.30;;
27375;SDS011;14844;51.302;6.354;2023-10-13T06:37:40;20.42;;;8.00;;
27375;SDS011;14844;51.302;6.354;2023-10-13T06:40:11;18.73;;;7.78;;
27375;SDS011;14844;51.302;6.354;2023-10-13T06:42:48;20.08;;;8.13;;
27375;SDS011;14844;51.302;6.354;2023-10-13T06:45:14;17.48;;;7.28;;
27375;SDS011;14844;51.302;6.354;2023-10-13T06:48:00;17.52;;;7.55;;
27375;SDS011;14844;51.302;6.354;2023-10-13T06:50:26;17.40;;;7.75;;
27375;SDS011;14844;51.302;6.354;2023-10-13T06:52:57;18.13;;;7.65;;
27375;SDS011;14844;51.302;6.354;2023-10-13T06:55:27;22.73;;;7.93;;
27375;SDS011;14844;51.302;6.354;2023-10-13T06:57:56;22.02;;;7.65;;
27375;SDS011;14844;51.302;6.354;2023-10-13T07:00:27;19.90;;;7.53;;
27375;SDS011;14844;51.302;6.354;2023-10-13T07:02:53;24.13;;;7.82;;
27375;SDS011;14844;51.302;6.354;2023-10-13T07:05:30;18.83;;;6.88;;
27375;SDS011;14844;51.302;6.354;2023-10-13T07:07:59;22.38;;;7.15;;
27375;SDS011;14844;51.302;6.354;2023-10-13T07:10:26;19.38;;;7.43;;
27375;SDS011;14844;51.302;6.354;2023-10-13T07:12:55;20.30;;;6.50;;
27375;SDS011;14844;51.302;6.354;2023-10-13T07:15:25;17.58;;;6.85;;
27375;SDS011;14844;51.302;6.354;2023-10-13T07:17:52;19.58;;;6.60;;
27375;SDS011;14844;51.302;6.354;2023-10-13T07:20:31;17.63;;;6.97;;
27375;SDS011;14844;51.302;6.354;2023-10-13T07:22:57;16.77;;;6.28;;
27375;SDS011;14844;51.302;6.354;2023-10-13T07:25:28;20.13;;;6.90;;
27375;SDS011;14844;51.302;6.354;2023-10-13T07:28:05;20.85;;;6.43;;
27375;SDS011;14844;51.302;6.354;2023-10-13T07:30:33;17.88;;;6.07;;
27375;SDS011;14844;51.302;6.354;2023-10-13T07:33:34;13.32;;;5.65;;
27375;SDS011;14844;51.302;6.354;2023-10-13T07:36:04;20.98;;;5.95;;
27375;SDS011;14844;51.302;6.354;2023-10-13T07:38:53;15.23;;;5.90;;
27375;SDS011;14844;51.302;6.354;2023-10-13T07:44:12;16.15;;;5.25;;
27375;SDS011;14844;51.302;6.354;2023-10-13T07:46:38;17.33;;;5.40;;
27375;SDS011;14844;51.302;6.354;2023-10-13T07:49:04;17.63;;;5.50;;
27375;SDS011;14844;51.302;6.354;2023-10-13T07:51:36;22.08;;;5.47;;
27375;SDS011;14844;51.302;6.354;2023-10-13T07:54:09;16.90;;;5.40;;
27375;SDS011;14844;51.302;6.354;2023-10-13T07:56:38;23.77;;;6.00;;
27375;SDS011;14844;51.302;6.354;2023-10-13T07:59:04;18.25;;;5.30;;
27375;SDS011;14844;51.302;6.354;2023-10-13T08:01:33;17.27;;;6.03;;
27375;SDS011;14844;51.302;6.354;2023-10-13T08:03:59;20.02;;;5.53;;
27375;SDS011;14844;51.302;6.354;2023-10-13T08:06:37;22.23;;;5.60;;
27375;SDS011;14844;51.302;6.354;2023-10-13T08:09:05;20.25;;;5.68;;
27375;SDS011;14844;51.302;6.354;2023-10-13T08:11:37;17.42;;;5.25;;
27375;SDS011;14844;51.302;6.354;2023-10-13T08:14:03;16.52;;;4.55;;
27375;SDS011;14844;51.302;6.354;2023-10-13T08:16:48;20.38;;;4.88;;
27375;SDS011;14844;51.302;6.354;2023-10-13T08:19:25;14.52;;;4.63;;
27375;SDS011;14844;51.302;6.354;2023-10-13T08:22:17;13.13;;;4.78;;
27375;SDS011;14844;51.302;6.354;2023-10-13T08:24:43;18.13;;;5.38;;
27375;SDS011;14844;51.302;6.354;2023-10-13T08:27:20;15.60;;;4.47;;
27375;SDS011;14844;51.302;6.354;2023-10-13T08:30:22;14.95;;;5.10;;
27375;SDS011;14844;51.302;6.354;2023-10-13T08:33:07;16.85;;;5.00;;
27375;SDS011;14844;51.302;6.354;2023-10-13T08:35:42;19.77;;;5.10;;
27375;SDS011;14844;51.302;6.354;2023-10-13T08:38:19;11.85;;;4.47;;
27375;SDS011;14844;51.302;6.354;2023-10-13T08:40:53;22.85;;;5.30;;
27375;SDS011;14844;51.302;6.354;2023-10-13T08:43:42;13.57;;;4.60;;
27375;SDS011;14844;51.302;6.354;2023-10-13T08:46:17;17.40;;;5.10;;
27375;SDS011;14844;51.302;6.354;2023-10-13T08:48:56;14.43;;;4.88;;
27375;SDS011;14844;51.302;6.354;2023-10-13T08:51:35;12.70;;;4.45;;
27375;SDS011;14844;51.302;6.354;2023-10-13T08:54:13;18.92;;;4.97;;
27375;SDS011;14844;51.302;6.354;2023-10-13T08:56:59;20.73;;;4.75;;
27375;SDS011;14844;51.302;6.354;2023-10-13T08:59:44;21.20;;;5.50;;
27375;SDS011;14844;51.302;6.354;2023-10-13T09:02:18;14.90;;;5.15;;
27375;SDS011;14844;51.302;6.354;2023-10-13T09:05:08;21.35;;;4.78;;
27375;SDS011;14844;51.302;6.354;2023-10-13T09:07:54;14.52;;;5.22;;
27375;SDS011;14844;51.302;6.354;2023-10-13T09:10:23;24.23;;;4.88;;
27375;SDS011;14844;51.302;6.354;2023-10-13T09:13:09;17.00;;;5.30;;
27375;SDS011;14844;51.302;6.354;2023-10-13T09:15:43;25.08;;;5.57;;
27375;SDS011;14844;51.302;6.354;2023-10-13T09:18:25;21.02;;;5.05;;
27375;SDS011;14844;51.302;6.354;2023-10-13T09:21:08;20.20;;;4.93;;
27375;SDS011;14844;51.302;6.354;2023-10-13T09:23:52;16.98;;;4.95;;
27375;SDS011;14844;51.302;6.354;2023-10-13T09:26:37;11.63;;;5.13;;
27375;SDS011;14844;51.302;6.354;2023-10-13T09:29:13;16.40;;;5.00;;
27375;SDS011;14844;51.302;6.354;2023-10-13T09:31:39;14.80;;;4.95;;
27375;SDS011;14844;51.302;6.354;2023-10-13T09:34:05;16.98;;;5.53;;
27375;SDS011;14844;51.302;6.354;2023-10-13T09:36:31;15.25;;;5.00;;
27375;SDS011;14844;51.302;6.354;2023-10-13T09:39:00;14.10;;;5.22;;
27375;SDS011;14844;51.302;6.354;2023-10-13T09:41:39;11.57;;;4.60;;
27375;SDS011;14844;51.302;6.354;2023-10-13T09:44:05;15.35;;;5.20;;
27375;SDS011;14844;51.302;6.354;2023-10-13T09:46:33;12.13;;;4.88;;
27375;SDS011;14844;51.302;6.354;2023-10-13T09:49:10;17.40;;;6.00;;
27375;SDS011;14844;51.302;6.354;2023-10-13T09:51:48;12.77;;;5.13;;
27375;SDS011;14844;51.302;6.354;2023-10-13T09:54:17;18.38;;;5.63;;
27375;SDS011;14844;51.302;6.354;2023-10-13T09:56:53;14.25;;;5.30;;
27375;SDS011;14844;51.302;6.354;2023-10-13T09:59:33;14.32;;;6.25;;
27375;SDS011;14844;51.302;6.354;2023-10-13T10:02:30;13.68;;;5.30;;
27375;SDS011;14844;51.302;6.354;2023-10-13T10:04:56;16.88;;;5.93;;
27375;SDS011;14844;51.302;6.354;2023-10-13T10:07:42;18.00;;;5.45;;
27375;SDS011;14844;51.302;6.354;2023-10-13T10:10:13;11.13;;;5.43;;
27375;SDS011;14844;51.302;6.354;2023-10-13T10:12:49;18.17;;;5.90;;
27375;SDS011;14844;51.302;6.354;2023-10-13T10:18:17;12.02;;;5.57;;
27375;SDS011;14844;51.302;6.354;2023-10-13T10:21:02;10.85;;;5.20;;
27375;SDS011;14844;51.302;6.354;2023-10-13T10:23:32;14.93;;;5.47;;
27375;SDS011;14844;51.302;6.354;2023-10-13T10:26:13;16.35;;;5.85;;
27375;SDS011;14844;51.302;6.354;2023-10-13T10:28:42;19.35;;;5.80;;
27375;SDS011;14844;51.302;6.354;2023-10-13T10:31:09;16.13;;;5.80;;
27375;SDS011;14844;51.302;6.354;2023-10-13T10:36:06;20.88;;;6.53;;
27375;SDS011;14844;51.302;6.354;2023-10-13T10:38:52;19.33;;;6.00;;
27375;SDS011;14844;51.302;6.354;2023-10-13T10:41:25;13.13;;;6.00;;
27375;SDS011;14844;51.302;6.354;2023-10-13T10:43:55;13.90;;;5.45;;
27375;SDS011;14844;51.302;6.354;2023-10-13T10:46:27;13.35;;;5.97;;
27375;SDS011;14844;51.302;6.354;2023-10-13T10:48:56;20.90;;;6.50;;
27375;SDS011;14844;51.302;6.354;2023-10-13T10:51:26;18.27;;;5.82;;
27375;SDS011;14844;51.302;6.354;2023-10-13T10:53:58;16.85;;;5.68;;
27375;SDS011;14844;51.302;6.354;2023-10-13T10:56:36;17.70;;;5.95;;
27375;SDS011;14844;51.302;6.354;2023-10-13T10:59:06;13.80;;;5.85;;
27375;SDS011;14844;51.302;6.354;2023-10-13T11:01:42;19.60;;;5.78;;
27375;SDS011;14844;51.302;6.354;2023-10-13T11:04:12;16.88;;;5.75;;
27375;SDS011;14844;51.302;6.354;2023-10-13T11:06:53;14.82;;;5.65;;
27375;SDS011;14844;51.302;6.354;2023-10-13T11:09:26;15.35;;;5.53;;
27375;SDS011;14844;51.302;6.354;2023-10-13T11:11:56;16.48;;;6.25;;
27375;SDS011;14844;51.302;6.354;2023-10-13T11:14:26;12.88;;;5.35;;
27375;SDS011;14844;51.302;6.354;2023-10-13T11:16:53;20.08;;;5.60;;
27375;SDS011;14844;51.302;6.354;2023-10-13T11:19:36;19.98;;;5.43;;
27375;SDS011;14844;51.302;6.354;2023-10-13T11:22:13;18.98;;;5.60;;
27375;SDS011;14844;51.302;6.354;2023-10-13T11:24:57;18.65;;;5.75;;
27375;SDS011;14844;51.302;6.354;2023-10-13T11:27:39;24.08;;;5.97;;
27375;SDS011;14844;51.302;6.354;2023-10-13T11:30:14;17.15;;;5.15;;
27375;SDS011;14844;51.302;6.354;2023-10-13T11:33:04;18.58;;;5.35;;
27375;SDS011;14844;51.302;6.354;2023-10-13T11:35:40;18.20;;;5.55;;
27375;SDS011;14844;51.302;6.354;2023-10-13T11:40:59;19.98;;;5.68;;
27375;SDS011;14844;51.302;6.354;2023-10-13T11:43:32;13.48;;;5.00;;
27375;SDS011;14844;51.302;6.354;2023-10-13T11:46:01;16.88;;;5.00;;
27375;SDS011;14844;51.302;6.354;2023-10-13T11:48:33;16.23;;;5.40;;
27375;SDS011;14844;51.302;6.354;2023-10-13T11:51:01;32.42;;;5.85;;
27375;SDS011;14844;51.302;6.354;2023-10-13T11:53:32;27.25;;;6.18;;
27375;SDS011;14844;51.302;6.354;2023-10-13T11:55:59;22.88;;;5.22;;
27375;SDS011;14844;51.302;6.354;2023-10-13T11:58:25;17.60;;;5.68;;
27375;SDS011;14844;51.302;6.354;2023-10-13T12:00:50;20.08;;;5.28;;
27375;SDS011;14844;51.302;6.354;2023-10-13T12:03:18;21.38;;;5.75;;
27375;SDS011;14844;51.302;6.354;2023-10-13T12:06:02;22.65;;;5.72;;
27375;SDS011;14844;51.302;6.354;2023-10-13T12:08:47;21.58;;;5.93;;
27375;SDS011;14844;51.302;6.354;2023-10-13T12:11:17;20.55;;;5.47;;
27375;SDS011;14844;51.302;6.354;2023-10-13T12:13:55;25.02;;;5.68;;
27375;SDS011;14844;51.302;6.354;2023-10-13T12:16:21;17.27;;;5.32;;
27375;SDS011;14844;51.302;6.354;2023-10-13T12:18:47;21.05;;;5.65;;
27375;SDS011;14844;51.302;6.354;2023-10-13T12:21:18;17.20;;;5.38;;
27375;SDS011;14844;51.302;6.354;2023-10-13T12:23:46;15.98;;;5.38;;
27375;SDS011;14844;51.302;6.354;2023-10-13T12:26:12;28.42;;;5.97;;
27375;SDS011;14844;51.302;6.354;2023-10-13T12:28:57;20.67;;;5.45;;
27375;SDS011;14844;51.302;6.354;2023-10-13T12:31:31;24.10;;;5.78;;
27375;SDS011;14844;51.302;6.354;2023-10-13T12:33:57;15.05;;;5.63;;
27375;SDS011;14844;51.302;6.354;2023-10-13T12:36:31;16.15;;;5.18;;
27375;SDS011;14844;51.302;6.354;2023-10-13T12:39:06;23.10;;;5.80;;
27375;SDS011;14844;51.302;6.354;2023-10-13T12:41:32;21.08;;;5.70;;
27375;SDS011;14844;51.302;6.354;2023-10-13T12:44:16;25.27;;;5.47;;
27375;SDS011;14844;51.302;6.354;2023-10-13T12:47:00;20.15;;;5.63;;
27375;SDS011;14844;51.302;6.354;2023-10-13T12:49:44;22.75;;;5.63;;
27375;SDS011;14844;51.302;6.354;2023-10-13T12:52:10;22.63;;;5.88;;
27375;SDS011;14844;51.302;6.354;2023-10-13T12:54:56;28.08;;;5.82;;
27375;SDS011;14844;51.302;6.354;2023-10-13T12:57:25;21.92;;;6.32;;
27375;SDS011;14844;51.302;6.354;2023-10-13T12:59:52;28.27;;;5.97;;
27375;SDS011;14844;51.302;6.354;2023-10-13T13:02:21;18.20;;;5.25;;
27375;SDS011;14844;51.302;6.354;2023-10-13T13:04:49;23.23;;;5.63;;
27375;SDS011;14844;51.302;6.354;2023-10-13T13:07:36;22.17;;;5.40;;
27375;SDS011;14844;51.302;6.354;2023-10-13T13:10:17;19.58;;;5.38;;
27375;SDS011;14844;51.302;6.354;2023-10-13T13:12:43;18.27;;;6.10;;
27375;SDS011;14844;51.302;6.354;2023-10-13T13:15:09;22.13;;;5.82;;
27375;SDS011;14844;51.302;6.354;2023-10-13T13:17:36;25.08;;;6.13;;
27375;SDS011;14844;51.302;6.354;2023-10-13T13:20:04;21.90;;;6.10;;
27375;SDS011;14844;51.302;6.354;2023-10-13T13:22:37;18.02;;;5.28;;
27375;SDS011;14844;51.302;6.354;2023-10-13T13:25:03;24.83;;;6.13;;
27375;SDS011;14844;51.302;6.354;2023-10-13T13:27:33;22.60;;;5.43;;
27375;SDS011;14844;51.302;6.354;2023-10-13T13:29:58;18.42;;;5.88;;
27375;SDS011;14844;51.302;6.354;2023-10-13T13:32:24;21.02;;;5.75;;
27375;SDS011;14844;51.302;6.354;2023-10-13T13:34:52;27.77;;;5.72;;
27375;SDS011;14844;51.302;6.354;2023-10-13T13:37:30;20.70;;;5.10;;
27375;SDS011;14844;51.302;6.354;2023-10-13T13:39:56;22.75;;;5.43;;
27375;SDS011;14844;51.302;6.354;2023-10-13T13:42:40;19.70;;;6.20;;
27375;SDS011;14844;51.302;6.354;2023-10-13T13:45:11;19.92;;;5.82;;
27375;SDS011;14844;51.302;6.354;2023-10-13T13:47:46;23.08;;;5.85;;
27375;SDS011;14844;51.302;6.354;2023-10-13T13:50:18;20.98;;;5.40;;
27375;SDS011;14844;51.302;6.354;2023-10-13T13:52:52;21.98;;;5.82;;
27375;SDS011;14844;51.302;6.354;2023-10-13T13:55:21;27.00;;;5.88;;
27375;SDS011;14844;51.302;6.354;2023-10-13T13:57:47;22.00;;;4.95;;
27375;SDS011;14844;51.302;6.354;2023-10-13T14:00:15;22.40;;;5.57;;
27375;SDS011;14844;51.302;6.354;2023-10-13T14:03:01;24.40;;;5.80;;
27375;SDS011;14844;51.302;6.354;2023-10-13T14:05:31;16.15;;;5.28;;
27375;SDS011;14844;51.302;6.354;2023-10-13T14:07:56;25.30;;;5.47;;
27375;SDS011;14844;51.302;6.354;2023-10-13T14:10:23;24.17;;;5.30;;
27375;SDS011;14844;51.302;6.354;2023-10-13T14:12:59;18.55;;;5.10;;
27375;SDS011;14844;51.302;6.354;2023-10-13T14:15:46;18.55;;;5.10;;
27375;SDS011;14844;51.302;6.354;2023-10-13T14:18:12;14.38;;;4.93;;
27375;SDS011;14844;51.302;6.354;2023-10-13T14:20:40;21.08;;;5.15;;
27375;SDS011;14844;51.302;6.354;2023-10-13T14:23:07;21.05;;;5.30;;
27375;SDS011;14844;51.302;6.354;2023-10-13T14:25:37;18.95;;;5.35;;
27375;SDS011;14844;51.302;6.354;2023-10-13T14:28:06;21.60;;;5.47;;
27375;SDS011;14844;51.302;6.354;2023-10-13T14:30:32;15.10;;;5.30;;
27375;SDS011;14844;51.302;6.354;2023-10-13T14:32:58;17.52;;;5.30;;
27375;SDS011;14844;51.302;6.354;2023-10-13T14:35:25;20.75;;;5.43;;
27375;SDS011;14844;51.302;6.354;2023-10-13T14:37:54;17.90;;;5.20;;
27375;SDS011;14844;51.302;6.354;2023-10-13T14:40:19;21.42;;;5.82;;
27375;SDS011;14844;51.302;6.354;2023-10-13T14:42:48;18.58;;;5.13;;
27375;SDS011;14844;51.302;6.354;2023-10-13T14:45:14;21.48;;;5.05;;
27375;SDS011;14844;51.302;6.354;2023-10-13T14:47:41;18.42;;;5.32;;
27375;SDS011;14844;51.302;6.354;2023-10-13T14:50:07;18.27;;;5.30;;
27375;SDS011;14844;51.302;6.354;2023-10-13T14:52:39;17.90;;;5.05;;
27375;SDS011;14844;51.302;6.354;2023-10-13T14:55:05;18.45;;;4.78;;
27375;SDS011;14844;51.302;6.354;2023-10-13T14:57:32;21.95;;;5.70;;
27375;SDS011;14844;51.302;6.354;2023-10-13T15:00:02;19.42;;;4.88;;
27375;SDS011;14844;51.302;6.354;2023-10-13T15:02:38;12.35;;;4.45;;
27375;SDS011;14844;51.302;6.354;2023-10-13T15:05:04;15.00;;;4.38;;
27375;SDS011;14844;51.302;6.354;2023-10-13T15:07:29;15.40;;;5.30;;
27375;SDS011;14844;51.302;6.354;2023-10-13T15:09:55;17.60;;;5.35;;
27375;SDS011;14844;51.302;6.354;2023-10-13T15:12:22;22.45;;;5.30;;
27375;SDS011;14844;51.302;6.354;2023-10-13T15:14:47;22.42;;;5.53;;
27375;SDS011;14844;51.302;6.354;2023-10-13T15:17:13;15.20;;;4.88;;
27375;SDS011;14844;51.302;6.354;2023-10-13T15:19:41;16.23;;;5.53;;
27375;SDS011;14844;51.302;6.354;2023-10-13T15:22:08;19.85;;;4.95;;